Time;durP1;ratioP1;P1;durP2;ratioP2;P2;SDS_P1;SDS_P2;PMS_P1;PMS_P2;Temp;Humidity;BMP_temperature;BMP_pressure;BME280_temperature;BME280_humidity;BME280_pressure;Samples;Min_cycle;Max_cycle;Signal;HPM_P1;HPM_P2
2023/01/02 00:01:14;;;;;;;12.20;4.63;;;14.50;98.30;;;;;;5135616;28;20466;-61
2023/01/02 00:03:41;;;;;;;11.07;4.60;;;14.50;98.00;;;;;;5136139;28;20414;-61
2023/01/02 00:06:08;;;;;;;4.93;2.93;;;14.60;97.50;;;;;;5135187;28;20462;-61
2023/01/02 00:08:36;;;;;;;7.00;3.70;;;14.60;97.60;;;;;;5135015;27;20450;-61
2023/01/02 00:11:03;;;;;;;8.67;3.30;;;14.70;97.40;;;;;;5139257;27;20872;-61
2023/01/02 00:13:29;;;;;;;14.60;3.37;;;14.80;97.30;;;;;;5139558;27;20433;-61
2023/01/02 00:15:56;;;;;;;9.27;3.80;;;14.80;97.40;;;;;;5139197;27;20488;-61
2023/01/02 00:18:23;;;;;;;9.80;3.70;;;14.90;97.30;;;;;;5139302;27;20450;-61
2023/01/02 00:20:49;;;;;;;5.97;3.00;;;14.90;97.20;;;;;;5139098;27;20831;-61
2023/01/02 00:23:16;;;;;;;7.23;2.97;;;14.90;97.30;;;;;;5138953;27;20468;-60
2023/01/02 00:25:44;;;;;;;10.53;3.90;;;14.90;97.20;;;;;;5138435;27;20511;-60
2023/01/02 00:28:11;;;;;;;6.03;2.80;;;14.90;97.70;;;;;;5138900;27;20454;-60
2023/01/02 00:30:38;;;;;;;9.37;3.20;;;14.90;98.10;;;;;;5138078;27;20906;-61
2023/01/02 00:33:05;;;;;;;7.23;3.20;;;14.90;98.30;;;;;;5138635;27;20860;-60
2023/01/02 00:35:31;;;;;;;5.60;2.87;;;14.80;98.30;;;;;;5138451;27;20473;-61
2023/01/02 00:37:58;;;;;;;6.07;3.00;;;14.90;98.50;;;;;;5138151;27;20833;-60
2023/01/02 00:40:25;;;;;;;8.33;3.03;;;14.90;98.70;;;;;;5138164;27;20458;-62
2023/01/02 00:42:53;;;;;;;7.00;3.13;;;14.90;98.70;;;;;;5138384;27;20453;-61
2023/01/02 00:45:20;;;;;;;9.03;3.60;;;14.90;99.00;;;;;;5138528;27;20565;-61
2023/01/02 00:47:46;;;;;;;8.57;3.90;;;14.90;99.10;;;;;;5138160;27;20816;-61
2023/01/02 00:50:13;;;;;;;5.30;2.90;;;14.90;98.70;;;;;;5138234;27;20458;-61
2023/01/02 00:52:40;;;;;;;6.27;2.50;;;14.90;98.80;;;;;;5138336;27;20469;-61
2023/01/02 00:55:07;;;;;;;11.07;3.60;;;14.90;98.90;;;;;;5138391;27;21001;-61
2023/01/02 00:57:34;;;;;;;9.57;3.27;;;14.90;99.00;;;;;;5138053;27;20458;-61
2023/01/02 01:00:02;;;;;;;8.87;3.87;;;14.90;99.00;;;;;;5138599;27;20456;-61
2023/01/02 01:02:29;;;;;;;5.43;3.47;;;14.90;99.10;;;;;;5138161;27;20485;-61
2023/01/02 01:04:55;;;;;;;5.07;2.90;;;14.90;99.20;;;;;;5138159;27;20446;-61
2023/01/02 01:07:22;;;;;;;8.53;3.43;;;14.90;99.30;;;;;;5138084;27;20453;-61
2023/01/02 01:09:49;;;;;;;5.20;3.30;;;14.90;99.20;;;;;;5138150;27;20457;-61
2023/01/02 01:12:15;;;;;;;10.60;3.70;;;14.90;99.20;;;;;;5138137;27;21003;-61
2023/01/02 01:14:42;;;;;;;14.30;4.70;;;14.90;99.30;;;;;;5137895;27;20485;-61
2023/01/02 01:17:10;;;;;;;7.60;3.00;;;14.90;99.20;;;;;;5137919;27;20449;-61
2023/01/02 01:19:37;;;;;;;7.33;3.40;;;14.90;99.10;;;;;;5137597;27;20941;-61
2023/01/02 01:22:03;;;;;;;9.93;3.37;;;14.90;99.20;;;;;;5136583;27;20466;-61
2023/01/02 01:24:30;;;;;;;5.40;2.93;;;14.80;99.00;;;;;;5138141;27;20446;-61
2023/01/02 01:26:57;;;;;;;5.47;2.80;;;14.80;98.70;;;;;;5137621;27;20507;-61
2023/01/02 01:29:24;;;;;;;6.80;3.00;;;14.80;98.70;;;;;;5137102;27;20751;-61
2023/01/02 01:31:50;;;;;;;8.60;3.03;;;14.80;98.50;;;;;;5137524;27;20470;-61
2023/01/02 01:34:19;;;;;;;9.77;3.60;;;14.80;98.40;;;;;;5137433;27;20450;-61
2023/01/02 01:36:45;;;;;;;10.60;3.47;;;14.80;98.30;;;;;;5137537;27;20446;-61
2023/01/02 01:39:12;;;;;;;13.63;3.53;;;14.80;98.50;;;;;;5137280;27;20449;-61
2023/01/02 01:41:39;;;;;;;3.27;2.10;;;14.80;97.50;;;;;;5137607;27;20500;-61
2023/01/02 01:44:39;;;;;;;9.67;3.13;;;14.80;97.00;;;;;;5137311;27;20442;-61
2023/01/02 01:47:12;;;;;;;5.50;2.83;;;14.90;97.30;;;;;;5137322;27;20434;-61
2023/01/02 01:49:40;;;;;;;7.10;2.90;;;14.90;97.30;;;;;;5137545;27;20430;-61
2023/01/02 01:52:11;;;;;;;9.10;3.97;;;14.90;97.30;;;;;;5137326;27;20465;-61
2023/01/02 01:54:41;;;;;;;7.37;3.60;;;14.90;97.60;;;;;;5137181;27;20992;-61
2023/01/02 01:57:15;;;;;;;9.80;3.57;;;14.90;97.70;;;;;;5137755;27;20446;-61
2023/01/02 01:59:42;;;;;;;7.23;3.10;;;15.00;97.60;;;;;;5137625;27;20426;-61
2023/01/02 02:02:10;;;;;;;6.50;2.73;;;15.00;97.60;;;;;;5137296;27;20470;-61
2023/01/02 02:04:36;;;;;;;7.73;3.60;;;15.00;97.40;;;;;;5136834;27;20953;-61
2023/01/02 02:07:05;;;;;;;8.27;3.30;;;15.00;97.40;;;;;;5136678;27;21021;-61
2023/01/02 02:09:37;;;;;;;5.47;2.67;;;15.00;97.40;;;;;;5136689;27;20431;-61
2023/01/02 02:12:05;;;;;;;6.80;3.20;;;15.00;97.30;;;;;;5136432;27;21019;-61
2023/01/02 02:14:33;;;;;;;8.73;3.53;;;15.10;97.20;;;;;;5136641;27;20478;-61
2023/01/02 02:17:07;;;;;;;6.93;2.70;;;15.10;97.00;;;;;;5136504;27;20499;-61
2023/01/02 02:20:15;;;;;;;6.90;3.23;;;15.10;97.00;;;;;;5136528;27;20845;-61
2023/01/02 02:23:13;;;;;;;5.50;3.10;;;15.10;96.80;;;;;;5032794;28;20482;-61
2023/01/02 02:26:09;;;;;;;5.87;3.37;;;15.10;96.90;;;;;;5128577;27;20450;-61
2023/01/02 02:29:14;;;;;;;4.60;3.17;;;15.00;96.90;;;;;;5136196;27;20450;-61
2023/01/02 02:31:50;;;;;;;6.97;2.37;;;15.10;96.80;;;;;;5134225;27;20478;-61
2023/01/02 02:34:23;;;;;;;6.10;2.97;;;15.00;97.00;;;;;;5136685;27;20434;-61
2023/01/02 02:36:57;;;;;;;5.60;2.60;;;15.00;96.80;;;;;;5135922;27;20534;-61
2023/01/02 02:39:29;;;;;;;5.30;3.30;;;15.00;97.30;;;;;;5135874;27;20544;-61
2023/01/02 02:42:03;;;;;;;12.40;3.20;;;15.00;97.40;;;;;;5135484;27;21004;-61
2023/01/02 02:44:40;;;;;;;7.07;4.30;;;15.00;97.80;;;;;;5135922;27;20437;-60
2023/01/02 02:47:14;;;;;;;4.30;2.83;;;15.00;97.70;;;;;;5135803;27;20902;-60
2023/01/02 02:49:49;;;;;;;8.10;3.57;;;15.00;97.90;;;;;;5135663;27;20429;-61
2023/01/02 02:52:24;;;;;;;4.37;2.87;;;15.00;98.20;;;;;;5135799;27;20492;-60
2023/01/02 02:54:56;;;;;;;7.20;3.07;;;14.90;98.20;;;;;;5135935;27;20849;-60
2023/01/02 02:57:24;;;;;;;8.50;2.77;;;14.90;98.30;;;;;;5136138;27;20442;-61
2023/01/02 02:59:51;;;;;;;6.87;3.93;;;14.90;98.10;;;;;;5136035;27;20457;-61
2023/01/02 03:02:20;;;;;;;7.73;3.07;;;14.80;98.50;;;;;;5135729;27;20996;-61
2023/01/02 03:04:50;;;;;;;11.83;3.50;;;14.80;98.70;;;;;;5136247;27;20442;-61
2023/01/02 03:07:23;;;;;;;17.87;3.63;;;14.80;98.70;;;;;;5135926;27;20441;-61
2023/01/02 03:10:00;;;;;;;7.37;3.03;;;14.80;98.80;;;;;;5136142;27;20431;-60
2023/01/02 03:12:36;;;;;;;18.10;4.53;;;14.80;98.90;;;;;;5135049;27;20462;-59
2023/01/02 03:15:12;;;;;;;10.00;3.23;;;14.80;99.30;;;;;;5135491;27;20462;-60
2023/01/02 03:17:51;;;;;;;8.97;2.93;;;14.80;99.40;;;;;;5135329;27;20827;-60
2023/01/02 03:20:21;;;;;;;15.70;4.43;;;14.80;99.50;;;;;;5135230;27;20434;-60
2023/01/02 03:22:52;;;;;;;5.63;4.20;;;14.80;99.70;;;;;;5134802;27;20877;-60
2023/01/02 03:25:21;;;;;;;7.10;3.27;;;14.80;99.60;;;;;;5135541;27;20442;-61
2023/01/02 03:27:50;;;;;;;7.60;3.47;;;14.70;99.80;;;;;;5135509;27;20454;-61
2023/01/02 03:30:19;;;;;;;10.30;3.90;;;14.70;99.90;;;;;;5135366;27;20450;-61
2023/01/02 03:32:52;;;;;;;6.37;3.43;;;14.70;99.80;;;;;;5134741;27;20992;-60
2023/01/02 03:35:24;;;;;;;4.73;3.10;;;14.70;99.90;;;;;;5134990;27;20563;-60
2023/01/02 03:37:57;;;;;;;4.97;3.37;;;14.60;99.90;;;;;;5135548;27;20430;-60
2023/01/02 03:40:26;;;;;;;7.30;3.30;;;14.60;99.90;;;;;;5134758;27;20865;-60
2023/01/02 03:42:59;;;;;;;6.37;3.23;;;14.60;99.90;;;;;;5134960;27;20446;-60
2023/01/02 03:45:29;;;;;;;8.30;2.87;;;14.60;99.90;;;;;;5134800;27;20422;-60
2023/01/02 03:48:04;;;;;;;5.60;3.57;;;14.60;99.90;;;;;;5134784;27;20929;-60
2023/01/02 03:50:34;;;;;;;9.43;4.10;;;14.60;99.90;;;;;;5134400;27;20943;-60
2023/01/02 03:53:01;;;;;;;6.80;3.30;;;14.50;99.90;;;;;;5134556;27;20981;-60
2023/01/02 03:55:31;;;;;;;19.23;3.60;;;14.50;99.90;;;;;;5134604;27;20486;-60
2023/01/02 03:58:04;;;;;;;7.80;4.30;;;14.50;99.90;;;;;;5134681;27;20426;-60
2023/01/02 04:00:35;;;;;;;9.83;3.53;;;14.50;99.90;;;;;;5134638;28;20438;-60
2023/01/02 04:03:09;;;;;;;5.93;3.53;;;14.60;99.90;;;;;;5134522;28;20435;-60
2023/01/02 04:05:42;;;;;;;7.77;3.90;;;14.60;99.90;;;;;;5135181;28;20446;-60
2023/01/02 04:08:13;;;;;;;8.00;3.73;;;14.50;99.90;;;;;;5135065;28;20840;-60
2023/01/02 04:10:44;;;;;;;9.93;3.47;;;14.50;99.90;;;;;;5134542;28;20936;-61
2023/01/02 04:13:16;;;;;;;5.77;3.13;;;14.50;99.90;;;;;;5134964;28;20450;-60
2023/01/02 04:15:45;;;;;;;10.10;3.20;;;14.50;99.90;;;;;;5134731;28;20499;-61
2023/01/02 04:18:19;;;;;;;10.90;3.43;;;14.50;99.90;;;;;;5135207;28;20442;-61
2023/01/02 04:20:53;;;;;;;8.97;3.77;;;14.50;99.90;;;;;;5134578;28;20470;-61
2023/01/02 04:23:27;;;;;;;11.10;3.70;;;14.50;99.70;;;;;;5135301;28;20783;-61
2023/01/02 04:26:00;;;;;;;8.57;3.50;;;14.50;99.60;;;;;;5134770;28;20426;-61
2023/01/02 04:28:29;;;;;;;7.83;4.00;;;14.50;99.60;;;;;;5134891;28;20426;-61
2023/01/02 04:31:02;;;;;;;7.20;3.10;;;14.50;99.30;;;;;;5134461;28;20462;-61
2023/01/02 04:33:31;;;;;;;5.97;2.73;;;14.50;99.00;;;;;;5134188;28;20851;-61
2023/01/02 04:35:58;;;;;;;6.63;3.37;;;14.50;98.90;;;;;;5134098;28;20485;-61
2023/01/02 04:38:25;;;;;;;6.90;3.50;;;14.50;98.80;;;;;;5134488;28;20437;-61
2023/01/02 04:40:51;;;;;;;7.33;3.10;;;14.50;98.90;;;;;;5134350;28;20847;-61
2023/01/02 04:43:21;;;;;;;9.53;3.30;;;14.50;98.70;;;;;;5134465;28;20430;-60
2023/01/02 04:45:48;;;;;;;10.07;3.23;;;14.50;98.60;;;;;;5134027;28;20937;-60
2023/01/02 04:48:15;;;;;;;6.57;3.90;;;14.50;98.60;;;;;;5134212;28;20861;-60
2023/01/02 04:50:43;;;;;;;7.40;2.97;;;14.50;98.40;;;;;;5134776;28;20869;-61
2023/01/02 04:53:10;;;;;;;4.43;3.50;;;14.50;98.70;;;;;;5134556;28;20460;-60
2023/01/02 04:55:37;;;;;;;10.80;3.00;;;14.50;98.60;;;;;;5135626;27;20533;-60
2023/01/02 04:58:04;;;;;;;13.80;4.20;;;14.50;98.30;;;;;;5138485;27;20449;-60
2023/01/02 05:00:31;;;;;;;8.63;3.30;;;14.50;98.50;;;;;;5138257;27;20434;-61
2023/01/02 05:02:58;;;;;;;5.77;3.00;;;14.50;98.40;;;;;;5138599;27;20446;-60
2023/01/02 05:05:24;;;;;;;8.10;2.93;;;14.50;98.60;;;;;;5138916;27;20977;-61
2023/01/02 05:07:52;;;;;;;8.80;3.97;;;14.50;98.60;;;;;;5138921;27;20434;-61
2023/01/02 05:10:19;;;;;;;4.37;2.70;;;14.40;98.80;;;;;;5130213;27;20434;-61
2023/01/02 05:12:46;;;;;;;7.10;3.40;;;14.40;99.00;;;;;;5139300;27;20476;-61
2023/01/02 05:15:13;;;;;;;6.70;3.00;;;14.40;99.20;;;;;;5138597;27;20437;-61
2023/01/02 05:17:42;;;;;;;7.03;2.73;;;14.40;99.20;;;;;;5138551;27;20446;-61
2023/01/02 05:20:11;;;;;;;9.43;3.13;;;14.40;99.40;;;;;;5138744;27;20452;-60
2023/01/02 05:25:24;;;;;;;5.57;2.50;;;14.40;99.80;;;;;;5139769;27;20444;-61
2023/01/02 05:27:53;;;;;;;4.23;3.10;;;14.40;99.80;;;;;;5139770;27;20423;-61
2023/01/02 05:30:19;;;;;;;6.63;2.67;;;14.40;99.90;;;;;;5140079;27;20507;-61
2023/01/02 05:32:46;;;;;;;8.10;3.00;;;14.40;99.90;;;;;;5140490;27;20474;-61
2023/01/02 05:35:13;;;;;;;5.57;3.00;;;14.30;99.90;;;;;;5140437;27;20446;-61
2023/01/02 05:37:40;;;;;;;11.20;3.10;;;14.40;99.90;;;;;;5137753;27;20470;-60
2023/01/02 05:40:08;;;;;;;7.30;2.67;;;14.30;99.90;;;;;;5136784;27;20472;-61
2023/01/02 05:42:36;;;;;;;7.27;2.70;;;14.30;99.90;;;;;;5137177;27;20477;-60
2023/01/02 05:45:03;;;;;;;9.50;2.73;;;14.20;99.90;;;;;;5137099;27;20478;-61
2023/01/02 05:47:30;;;;;;;8.90;2.67;;;14.20;99.90;;;;;;5137162;27;20446;-60
2023/01/02 05:49:56;;;;;;;6.33;2.53;;;14.20;99.90;;;;;;5136593;27;20451;-60
2023/01/02 05:52:23;;;;;;;14.13;4.83;;;14.20;99.90;;;;;;5137299;27;20478;-61
2023/01/02 05:54:50;;;;;;;4.10;2.23;;;14.20;99.90;;;;;;5136773;27;20457;-60
2023/01/02 05:57:17;;;;;;;9.77;2.67;;;14.20;99.90;;;;;;5136613;27;20486;-60
2023/01/02 05:59:45;;;;;;;8.13;3.10;;;14.10;99.90;;;;;;5136475;27;20453;-61
2023/01/02 06:02:11;;;;;;;8.00;3.60;;;14.10;99.90;;;;;;5137110;27;20837;-61
2023/01/02 06:04:38;;;;;;;4.40;2.70;;;14.20;99.90;;;;;;5136210;27;20925;-61
2023/01/02 06:07:05;;;;;;;7.67;2.73;;;14.10;99.90;;;;;;5135689;27;20446;-61
2023/01/02 06:09:31;;;;;;;6.73;2.53;;;14.10;99.90;;;;;;5136486;27;20458;-61
2023/01/02 06:11:58;;;;;;;7.13;3.00;;;14.10;99.90;;;;;;5136555;27;20477;-61
2023/01/02 06:14:25;;;;;;;10.30;3.70;;;14.20;99.90;;;;;;5136153;27;20782;-61
2023/01/02 06:16:53;;;;;;;6.13;2.90;;;14.20;99.90;;;;;;5136184;27;20466;-61
2023/01/02 06:19:19;;;;;;;4.50;2.77;;;14.20;99.90;;;;;;5136325;27;20443;-61
2023/01/02 06:21:46;;;;;;;6.03;2.70;;;14.10;99.90;;;;;;5135981;27;20466;-61
2023/01/02 06:24:13;;;;;;;8.47;2.70;;;14.10;99.90;;;;;;5136562;27;20450;-60
2023/01/02 06:26:39;;;;;;;6.17;2.43;;;14.10;99.90;;;;;;5135788;27;20961;-61
2023/01/02 06:29:06;;;;;;;7.13;2.73;;;14.10;99.90;;;;;;5135840;27;20894;-61
2023/01/02 06:31:33;;;;;;;6.43;2.23;;;14.10;99.90;;;;;;5135753;27;20466;-61
2023/01/02 06:34:02;;;;;;;3.20;2.20;;;14.10;99.90;;;;;;5136022;27;20559;-61
2023/01/02 06:36:30;;;;;;;7.97;3.60;;;14.10;99.90;;;;;;5135857;27;20531;-61
2023/01/02 06:38:57;;;;;;;4.63;2.40;;;14.10;99.90;;;;;;5135754;27;20441;-61
2023/01/02 06:41:24;;;;;;;4.33;2.80;;;14.10;99.90;;;;;;5135629;27;20473;-61
2023/01/02 06:43:52;;;;;;;2.60;2.40;;;14.10;99.90;;;;;;5135774;27;20450;-61
2023/01/02 06:46:21;;;;;;;7.83;2.97;;;14.10;99.90;;;;;;5135659;27;20426;-61
2023/01/02 06:48:48;;;;;;;5.80;2.40;;;14.10;99.90;;;;;;5135698;27;20446;-61
2023/01/02 06:51:18;;;;;;;5.80;2.63;;;14.00;99.90;;;;;;5135358;27;20466;-61
2023/01/02 06:53:45;;;;;;;6.13;2.33;;;14.00;99.90;;;;;;5135492;27;20436;-61
2023/01/02 06:56:13;;;;;;;6.13;3.53;;;14.00;99.90;;;;;;5135292;27;20482;-61
2023/01/02 06:58:40;;;;;;;8.27;2.73;;;14.00;99.90;;;;;;5135874;27;20453;-61
2023/01/02 07:01:09;;;;;;;4.70;2.10;;;14.00;99.90;;;;;;5135236;27;20470;-61
2023/01/02 07:03:36;;;;;;;9.77;3.33;;;14.00;99.90;;;;;;5135206;27;20434;-61
2023/01/02 07:06:05;;;;;;;6.90;2.90;;;14.00;99.90;;;;;;5136462;27;20434;-61
2023/01/02 07:08:36;;;;;;;6.17;2.50;;;13.90;99.90;;;;;;5138688;27;20473;-61
2023/01/02 07:11:08;;;;;;;4.03;2.50;;;13.90;99.90;;;;;;5136336;27;20523;-61
2023/01/02 07:13:34;;;;;;;6.90;2.73;;;13.90;99.90;;;;;;5135292;27;20434;-61
2023/01/02 07:16:05;;;;;;;5.90;2.63;;;13.90;99.90;;;;;;5135014;27;20449;-61
2023/01/02 07:18:32;;;;;;;9.93;2.60;;;13.90;99.90;;;;;;5134664;27;20454;-60
2023/01/02 07:20:59;;;;;;;9.73;2.70;;;13.90;99.90;;;;;;5134407;27;20977;-60
2023/01/02 07:23:26;;;;;;;5.90;2.10;;;13.90;99.90;;;;;;5135196;27;20445;-60
2023/01/02 07:25:55;;;;;;;8.27;2.70;;;13.90;99.90;;;;;;5135752;27;20466;-61
2023/01/02 07:28:23;;;;;;;5.63;2.90;;;13.90;99.90;;;;;;5134565;27;20977;-61
2023/01/02 07:30:50;;;;;;;7.17;2.60;;;13.80;99.90;;;;;;5135135;27;20493;-61
2023/01/02 07:33:17;;;;;;;5.37;2.40;;;13.90;99.90;;;;;;5134780;27;20450;-61
2023/01/02 07:35:44;;;;;;;8.70;3.00;;;13.90;99.90;;;;;;5134724;27;20446;-61
2023/01/02 07:38:11;;;;;;;6.03;2.97;;;13.80;99.90;;;;;;5134684;27;20499;-61
2023/01/02 07:40:37;;;;;;;8.03;2.93;;;13.80;99.90;;;;;;5134211;27;20465;-61
2023/01/02 07:43:05;;;;;;;12.67;3.17;;;13.80;99.90;;;;;;5134587;27;20450;-61
2023/01/02 07:45:33;;;;;;;12.53;3.43;;;13.70;99.90;;;;;;5134714;27;20492;-61
2023/01/02 07:48:00;;;;;;;5.73;3.10;;;13.70;99.90;;;;;;5134511;27;20469;-61
2023/01/02 07:50:27;;;;;;;5.33;2.37;;;13.70;99.90;;;;;;5134837;27;20458;-61
2023/01/02 07:52:54;;;;;;;11.63;3.20;;;13.70;99.90;;;;;;5134219;27;20949;-61
2023/01/02 07:55:21;;;;;;;10.00;2.70;;;13.70;99.90;;;;;;5134740;27;20446;-61
2023/01/02 07:57:48;;;;;;;11.30;3.10;;;13.70;99.90;;;;;;5134490;27;20477;-61
2023/01/02 08:00:17;;;;;;;6.63;2.50;;;13.70;99.90;;;;;;5134357;27;20500;-60
2023/01/02 08:02:44;;;;;;;3.47;2.10;;;13.70;99.90;;;;;;5134348;27;20468;-60
2023/01/02 08:05:11;;;;;;;5.13;2.37;;;13.80;99.90;;;;;;5134282;28;20453;-59
2023/01/02 08:07:37;;;;;;;3.07;2.40;;;13.70;99.90;;;;;;5133941;28;20433;-59
2023/01/02 08:10:05;;;;;;;3.90;2.33;;;13.70;99.90;;;;;;5133862;28;20454;-60
2023/01/02 08:12:32;;;;;;;4.17;2.27;;;13.70;99.90;;;;;;5134380;28;20866;-60
2023/01/02 08:14:58;;;;;;;3.70;2.53;;;13.70;99.90;;;;;;5134412;28;20439;-61
2023/01/02 08:17:28;;;;;;;3.43;1.70;;;13.70;99.90;;;;;;5134410;28;20466;-60
2023/01/02 08:19:55;;;;;;;3.20;2.20;;;13.70;99.90;;;;;;5133897;28;20902;-60
2023/01/02 08:22:22;;;;;;;11.20;2.80;;;13.70;99.90;;;;;;5134159;28;20510;-60
2023/01/02 08:24:49;;;;;;;4.53;2.43;;;13.60;99.90;;;;;;5134217;28;20442;-60
2023/01/02 08:27:15;;;;;;;8.43;2.10;;;13.60;99.90;;;;;;5133906;28;20942;-61
2023/01/02 08:29:42;;;;;;;6.43;2.57;;;13.50;99.90;;;;;;5133844;27;20938;-60
2023/01/02 08:32:09;;;;;;;6.13;2.50;;;13.50;99.90;;;;;;5137897;27;20473;-61
2023/01/02 08:34:37;;;;;;;3.43;2.33;;;13.50;99.90;;;;;;5138213;27;20457;-61
2023/01/02 08:37:03;;;;;;;4.03;2.43;;;13.50;99.90;;;;;;5138112;27;20490;-61
2023/01/02 08:39:30;;;;;;;3.43;2.03;;;13.40;99.90;;;;;;5137965;27;20457;-61
2023/01/02 08:41:57;;;;;;;4.80;2.27;;;13.30;99.90;;;;;;5137717;27;20861;-61
2023/01/02 08:44:24;;;;;;;4.03;2.67;;;13.30;99.90;;;;;;5137625;27;21015;-61
2023/01/02 08:46:51;;;;;;;4.27;3.47;;;13.30;99.90;;;;;;5138028;27;20446;-61
2023/01/02 08:49:18;;;;;;;4.50;2.77;;;13.20;99.90;;;;;;5137890;27;20453;-60
2023/01/02 08:51:46;;;;;;;3.03;2.20;;;13.00;99.90;;;;;;5137862;27;20450;-60
2023/01/02 08:54:13;;;;;;;4.60;3.10;;;13.00;99.90;;;;;;5137845;27;20498;-60
2023/01/02 08:56:40;;;;;;;6.90;2.63;;;12.90;99.90;;;;;;5137748;27;20881;-60
2023/01/02 08:59:08;;;;;;;3.70;2.10;;;12.90;99.90;;;;;;5137952;27;20454;-61
2023/01/02 09:01:35;;;;;;;3.20;1.57;;;12.90;99.90;;;;;;5137649;27;20470;-60
2023/01/02 09:04:02;;;;;;;5.00;1.43;;;12.80;99.90;;;;;;5137503;27;20834;-60
2023/01/02 09:06:31;;;;;;;2.17;0.90;;;12.70;99.90;;;;;;5137673;27;20432;-60
2023/01/02 09:08:59;;;;;;;1.13;0.90;;;12.60;99.90;;;;;;5137613;27;20445;-61
2023/01/02 09:11:29;;;;;;;2.27;0.93;;;12.50;99.90;;;;;;5137547;27;20469;-61
2023/01/02 09:13:56;;;;;;;3.60;1.17;;;12.50;99.90;;;;;;5137531;27;20435;-61
2023/01/02 09:16:23;;;;;;;5.37;1.20;;;12.50;99.90;;;;;;5137067;27;20953;-60
2023/01/02 09:18:50;;;;;;;0.97;0.93;;;12.50;99.90;;;;;;5137362;27;20453;-61
2023/01/02 09:21:17;;;;;;;2.40;1.40;;;12.40;99.90;;;;;;5136851;27;20849;-61
2023/01/02 09:23:44;;;;;;;2.00;1.63;;;12.40;99.90;;;;;;5137288;27;20441;-61
2023/01/02 09:26:12;;;;;;;1.50;1.40;;;12.30;99.90;;;;;;5137340;27;20450;-61
2023/01/02 09:28:39;;;;;;;1.50;1.40;;;12.30;99.90;;;;;;5137147;27;20438;-61
2023/01/02 09:31:07;;;;;;;1.80;1.70;;;12.30;99.90;;;;;;5137070;27;20466;-61
2023/01/02 09:33:34;;;;;;;1.17;1.10;;;12.30;99.90;;;;;;5136760;27;20976;-61
2023/01/02 09:36:02;;;;;;;2.80;1.90;;;12.30;99.90;;;;;;5137077;27;20434;-61
2023/01/02 09:38:29;;;;;;;1.70;1.40;;;12.30;99.90;;;;;;5136633;27;20485;-61
2023/01/02 09:40:57;;;;;;;2.27;2.07;;;12.20;99.90;;;;;;5136633;27;21020;-61
2023/01/02 09:43:30;;;;;;;2.20;2.00;;;12.20;99.90;;;;;;5136103;27;20452;-61
2023/01/02 09:46:00;;;;;;;2.83;2.50;;;12.10;99.90;;;;;;5136884;27;20431;-61
2023/01/02 09:48:31;;;;;;;2.50;1.60;;;12.10;99.90;;;;;;5136855;27;20432;-61
2023/01/02 09:50:58;;;;;;;2.30;1.90;;;12.10;99.90;;;;;;5136706;27;20474;-60
2023/01/02 09:53:26;;;;;;;2.07;1.87;;;12.10;99.90;;;;;;5136696;27;20432;-61
2023/01/02 09:55:57;;;;;;;2.90;2.60;;;12.10;99.90;;;;;;5136746;27;20423;-61
2023/01/02 09:58:36;;;;;;;3.00;2.50;;;12.10;99.90;;;;;;5136582;27;20566;-61
2023/01/02 10:01:03;;;;;;;3.37;3.00;;;12.10;99.90;;;;;;5136802;27;20466;-60
2023/01/02 10:03:36;;;;;;;2.57;2.20;;;12.10;99.90;;;;;;5136639;27;20518;-61
2023/01/02 10:06:12;;;;;;;2.80;2.50;;;12.20;99.90;;;;;;5136486;27;20456;-61
2023/01/02 10:08:50;;;;;;;3.10;2.60;;;12.20;99.90;;;;;;5137011;27;20445;-60
2023/01/02 10:11:38;;;;;;;4.53;3.17;;;12.20;99.90;;;;;;5136903;27;20471;-61
2023/01/02 10:14:13;;;;;;;4.23;2.60;;;12.30;99.90;;;;;;5136343;27;20455;-61
2023/01/02 10:16:42;;;;;;;4.77;3.73;;;12.40;99.90;;;;;;5136330;27;20436;-61
2023/01/02 10:19:15;;;;;;;3.57;3.17;;;12.40;99.90;;;;;;5136054;27;20801;-61
2023/01/02 10:21:43;;;;;;;4.47;3.77;;;12.40;99.90;;;;;;5136105;27;20477;-61
2023/01/02 10:24:16;;;;;;;5.17;3.93;;;12.40;99.90;;;;;;5135924;27;20907;-60
2023/01/02 10:26:46;;;;;;;5.50;3.70;;;12.30;99.90;;;;;;5136127;27;20446;-61
2023/01/02 10:29:25;;;;;;;5.87;4.40;;;12.40;99.90;;;;;;5136109;27;20454;-60
2023/01/02 10:31:58;;;;;;;5.80;3.90;;;12.40;99.90;;;;;;5136065;27;20461;-61
2023/01/02 10:34:25;;;;;;;6.03;4.47;;;12.40;99.90;;;;;;5135994;27;20444;-61
2023/01/02 10:36:52;;;;;;;5.90;3.97;;;12.50;99.90;;;;;;5135991;27;20445;-61
2023/01/02 10:39:21;;;;;;;5.43;4.23;;;12.40;99.90;;;;;;5135680;27;20473;-61
2023/01/02 10:41:51;;;;;;;7.60;4.93;;;12.30;99.90;;;;;;5135705;27;20549;-61
2023/01/02 10:44:26;;;;;;;5.60;4.33;;;12.30;99.90;;;;;;5135767;27;20441;-61
2023/01/02 10:46:53;;;;;;;5.63;4.70;;;12.30;99.90;;;;;;5135783;27;20429;-60
2023/01/02 10:49:21;;;;;;;6.90;4.93;;;12.30;99.90;;;;;;5135787;27;20427;-61
2023/01/02 10:51:53;;;;;;;5.57;4.33;;;12.20;99.90;;;;;;5135595;27;20923;-60
2023/01/02 10:54:19;;;;;;;5.43;3.73;;;12.20;99.90;;;;;;5135421;27;20426;-60
2023/01/02 10:56:49;;;;;;;6.20;3.90;;;12.20;99.90;;;;;;5135594;27;20779;-61
2023/01/02 10:59:22;;;;;;;8.40;5.23;;;12.30;99.90;;;;;;5135443;27;20510;-61
2023/01/02 11:01:51;;;;;;;4.47;3.70;;;12.30;99.90;;;;;;5135395;27;20465;-61
2023/01/02 11:04:22;;;;;;;5.63;4.20;;;12.30;99.90;;;;;;5135353;27;20445;-60
2023/01/02 11:06:53;;;;;;;5.17;3.83;;;12.30;99.90;;;;;;5135815;27;20493;-60
2023/01/02 11:09:22;;;;;;;6.27;4.30;;;12.30;99.90;;;;;;5135422;27;20439;-61
2023/01/02 11:11:51;;;;;;;4.53;3.43;;;12.30;99.90;;;;;;5135092;27;20996;-61
2023/01/02 11:14:23;;;;;;;5.03;3.90;;;12.30;99.90;;;;;;5135315;27;20427;-61
2023/01/02 11:16:50;;;;;;;5.40;4.17;;;12.20;99.90;;;;;;5135234;27;20433;-61
2023/01/02 11:19:22;;;;;;;6.60;4.43;;;12.30;99.90;;;;;;5135178;27;20472;-61
2023/01/02 11:21:52;;;;;;;5.27;4.33;;;12.30;99.90;;;;;;5134956;27;20458;-61
2023/01/02 11:24:24;;;;;;;5.80;4.27;;;12.20;99.90;;;;;;5135384;27;20457;-61
2023/01/02 11:26:52;;;;;;;6.87;4.87;;;12.20;99.90;;;;;;5135154;27;20836;-61
2023/01/02 11:29:26;;;;;;;5.60;4.23;;;12.10;99.90;;;;;;5135263;27;20446;-61
2023/01/02 11:31:56;;;;;;;5.77;4.60;;;12.10;99.90;;;;;;5134980;27;20471;-61
2023/01/02 11:34:25;;;;;;;6.80;4.63;;;12.00;99.90;;;;;;5135068;27;20446;-61
2023/01/02 11:37:04;;;;;;;7.40;4.90;;;12.00;99.90;;;;;;5134952;27;20449;-60
2023/01/02 11:39:32;;;;;;;8.10;5.23;;;11.90;99.90;;;;;;5134829;27;20473;-60
2023/01/02 11:45:04;;;;;;;7.07;5.40;;;11.80;99.90;;;;;;5135930;27;20463;-60
2023/01/02 11:47:34;;;;;;;7.20;5.50;;;11.80;99.90;;;;;;5135955;27;20437;-61
2023/01/02 11:50:01;;;;;;;7.00;4.87;;;11.70;99.90;;;;;;5136889;27;20446;-61
2023/01/02 11:52:35;;;;;;;5.73;4.70;;;11.60;99.90;;;;;;5137136;27;20476;-61
2023/01/02 11:55:13;;;;;;;8.43;5.00;;;11.60;99.90;;;;;;5137632;27;20438;-60
2023/01/02 11:57:47;;;;;;;7.20;5.50;;;11.50;99.90;;;;;;5137519;27;20523;-61
2023/01/02 12:00:18;;;;;;;7.40;5.23;;;11.50;99.90;;;;;;5135751;27;20434;-60
2023/01/02 12:02:47;;;;;;;6.90;5.37;;;11.50;99.90;;;;;;5134480;28;20468;-60
2023/01/02 12:05:16;;;;;;;7.20;5.63;;;11.50;99.90;;;;;;5134004;27;20440;-61
2023/01/02 12:07:45;;;;;;;7.23;5.40;;;11.60;99.90;;;;;;5134450;28;20445;-61
2023/01/02 12:10:29;;;;;;;7.70;5.30;;;11.70;99.90;;;;;;5134301;28;21059;-61
2023/01/02 12:13:11;;;;;;;7.03;5.83;;;11.80;99.90;;;;;;5134424;28;20441;-61
2023/01/02 12:15:53;;;;;;;6.77;5.30;;;12.00;99.90;;;;;;5134091;28;20830;-61
2023/01/02 12:18:35;;;;;;;6.20;5.40;;;12.20;99.90;;;;;;5134240;28;20469;-61
2023/01/02 12:21:11;;;;;;;6.40;5.13;;;12.30;99.90;;;;;;5134164;28;20476;-61
2023/01/02 12:24:04;;;;;;;7.80;6.00;;;12.40;99.90;;;;;;5134236;28;20440;-61
2023/01/02 12:26:40;;;;;;;8.07;6.27;;;12.40;99.90;;;;;;5134200;28;20453;-61
2023/01/02 12:29:42;;;;;;;6.53;5.40;;;12.40;99.90;;;;;;5134222;28;20434;-61
2023/01/02 12:33:00;;;;;;;8.60;5.83;;;12.40;99.90;;;;;;5133663;27;20993;-61
2023/01/02 12:35:47;;;;;;;6.57;4.83;;;12.40;99.90;;;;;;5088342;27;20833;-61
2023/01/02 12:38:18;;;;;;;7.10;5.80;;;12.40;99.90;;;;;;5134018;28;20474;-61
2023/01/02 12:40:53;;;;;;;8.73;6.07;;;12.40;99.90;;;;;;5133600;28;20461;-61
2023/01/02 12:43:43;;;;;;;7.90;5.87;;;12.50;99.90;;;;;;5134037;28;20422;-61
2023/01/02 12:46:22;;;;;;;6.90;4.93;;;12.50;99.90;;;;;;5134001;28;20439;-61
2023/01/02 12:49:04;;;;;;;5.20;4.57;;;12.50;99.90;;;;;;5134020;28;20437;-61
2023/01/02 12:51:38;;;;;;;5.67;4.77;;;12.70;99.90;;;;;;5133945;28;20469;-61
2023/01/02 12:54:21;;;;;;;5.70;4.50;;;12.70;99.90;;;;;;5133848;27;20435;-60
2023/01/02 12:56:55;;;;;;;6.70;4.70;;;12.70;99.90;;;;;;5133943;28;20431;-61
2023/01/02 12:59:50;;;;;;;5.47;4.93;;;12.60;99.90;;;;;;5133769;28;20473;-61
2023/01/02 13:02:31;;;;;;;6.00;4.77;;;12.60;99.90;;;;;;5120243;28;20504;-61
2023/01/02 13:05:05;;;;;;;5.73;4.60;;;12.60;99.90;;;;;;5133922;27;20434;-60
2023/01/02 13:07:38;;;;;;;5.77;4.70;;;12.40;99.90;;;;;;5133954;27;20454;-61